Floreffe, Belgium
Current Conditions -  °F | °C
As of 3:20 AM on Monday 22 Dec 2014 (Local Time) from EBCI Reporting Station
Drizzle Drizzle  
Wind Chill: 37°   Ceiling: 700
Heat Index: 45°   Visibility: 4mi
Dew Point: 43°   Wind: 20mph
Humidity: 93%   Direction: 220°SW
Pressure: 30.27"   Gusts: NA
Location:  50.43°N, 4.76°E
Report Text: EBCI 220220Z 22017KT 6000 -DZ BKN007 07/06 Q1025 TEMPO 22018G30KT
Loading
Personal Weather Stations






























Interactive Weather Map New forecast layout! Learn more

10-Day Weather Forecast

Advertisements
Track Severe Weather on mobile